Gwen — V7LP6 — position and weather

sailwx.info

Track history (hours):
 
Tides and Currents Weather Stations Pressure Air Temp Water Temp Dewpoint Dewpoint Depression Visibility Wind Speed Wind Dir Waves Ship Positions

Gwen

Last reported at 2018-Apr-18 15:35 UTC. Time now 2018-Apr-23 13:35 UTC.
Position N 01°15' E 103°25'.

Length 144 m; draft 9.5 m.

Type: Ship (hazmat cat A). MMSI: 538007204.

Date/timePositionNaut miles runAvg speedWind from/ knotsBaromVisibWave heightAir tempDewpointWater temp
2018-Apr-18 15:35N 01°15' E 103°25'110.6
2018-Apr-18 15:29N 01°14' E 103°26'611.4
2018-Apr-18 14:58N 01°13' E 103°32'612.2
2018-Apr-18 14:30N 01°11' E 103°37'712.6
2018-Apr-18 13:59N 01°08' E 103°43'612.7
2018-Apr-18 13:31N 01°11' E 103°48'713.9
2018-Apr-18 13:00N 01°13' E 103°55'  
2018-Apr-15 21:26N 01°13' E 103°56'4 8.6
2018-Apr-15 20:59N 01°12' E 103°52'511.0
2018-Apr-15 20:30N 01°09' E 103°48'4 8.4
2018-Apr-15 20:00N 01°06' E 103°44'4 8.1
2018-Apr-15 19:30N 01°04' E 103°41'4 6.8
2018-Apr-15 18:56N 01°03' E 103°37'611.5
2018-Apr-15 18:27N 01°07' E 103°33'410.1
2018-Apr-15 18:01N 01°10' E 103°36'5 9.2
2018-Apr-15 17:30N 01°11' E 103°40'2 2.9
2018-Apr-15 16:58N 01°11' E 103°42'0 0.0
2018-Apr-15 16:25N 01°11' E 103°42'0 0.2
2018-Apr-15 15:58N 01°11' E 103°42'0 0.0
2018-Apr-15 15:28N 01°11' E 103°42'0 0.1
2018-Apr-15 14:58N 01°11' E 103°42'0 0.0
2018-Apr-15 14:28N 01°11' E 103°42'0 0.0
2018-Apr-15 13:58N 01°11' E 103°42'0 0.1
2018-Apr-15 13:19N 01°11' E 103°42'0 0.0
2018-Apr-15 12:58N 01°11' E 103°42'0 0.1
2018-Apr-15 12:28N 01°11' E 103°42'0 0.0
2018-Apr-15 11:55N 01°11' E 103°42'0 0.0
2018-Apr-15 11:28N 01°11' E 103°42'0 0.0
2018-Apr-15 10:58N 01°11' E 103°42'0 0.0
2018-Apr-15 10:28N 01°11' E 103°42'0 0.1
2018-Apr-15 09:52N 01°11' E 103°42'0 0.2
2018-Apr-15 09:28N 01°11' E 103°42'0 0.0
2018-Apr-15 08:58N 01°11' E 103°42'0 0.1
2018-Apr-15 08:28N 01°11' E 103°42'0 0.0
2018-Apr-15 07:58N 01°11' E 103°42'0 0.0
2018-Apr-15 07:28N 01°11' E 103°42'0 0.1
2018-Apr-15 06:49N 01°11' E 103°42'0 0.0
2018-Apr-15 06:25N 01°11' E 103°42'0 0.0
2018-Apr-15 05:55N 01°11' E 103°42'0 0.0
2018-Apr-15 05:28N 01°11' E 103°42'1 1.3
2018-Apr-15 05:00N 01°11' E 103°42'2 4.4
2018-Apr-15 04:30N 01°09' E 103°44'3 6.8
2018-Apr-15 04:01N 01°10' E 103°47'4 7.6
2018-Apr-15 03:30N 01°12' E 103°51'4 7.7
2018-Apr-15 03:00N 01°13' E 103°54'4 8.2
2018-Apr-15 02:30N 01°15' E 103°58'  
2018-Apr-09 20:52N 22°00' E 121°11'512.6
2018-Apr-09 20:30N 22°04' E 121°14'612.4
2018-Apr-09 20:00N 22°09' E 121°18'613.0
2018-Apr-09 19:30N 22°14' E 121°22'1112.9
2018-Apr-09 18:39N 22°23' E 121°30'212.9
2018-Apr-09 18:30N 22°24' E 121°31'10312.6
2018-Apr-09 10:18N 23°54' E 122°28'512.7
2018-Apr-09 09:54N 23°58' E 122°29'512.8
2018-Apr-09 09:31N 24°03' E 122°30'713.0
2018-Apr-09 09:00N 24°10' E 122°32'713.6
2018-Apr-09 08:30N 24°16' E 122°34'714.0
2018-Apr-09 08:00N 24°23' E 122°36'713.3
2018-Apr-09 07:30N 24°29' E 122°38'713.3
2018-Apr-09 07:00N 24°36' E 122°40'713.2
2018-Apr-09 06:30N 24°42' E 122°41'613.0
2018-Apr-09 06:00N 24°48' E 122°44'612.3
2018-Apr-09 05:30N 24°54' E 122°45'611.6
2018-Apr-09 05:00N 25°00' E 122°47'612.2
2018-Apr-09 04:30N 25°06' E 122°48'612.3
2018-Apr-09 04:00N 25°12' E 122°50'  
Track history (hours):
 
Tides and Currents Weather Stations Pressure Air Temp Water Temp Dewpoint Dewpoint Depression Visibility Wind Speed Wind Dir Waves Ship Positions

Gwen

Last reported at 2018-Apr-18 15:35 UTC. Time now 2018-Apr-23 13:35 UTC.
Position N 01°15' E 103°25'.

Length 144 m; draft 9.5 m.

Type: Ship (hazmat cat A). MMSI: 538007204.

Date/timePositionNaut miles runAvg speedWind from/ knotsBaromVisibWave heightAir tempDewpointWater temp
2018-Apr-18 15:35N 01°15' E 103°25'110.6
2018-Apr-18 15:29N 01°14' E 103°26'611.4
2018-Apr-18 14:58N 01°13' E 103°32'612.2
2018-Apr-18 14:30N 01°11' E 103°37'712.6
2018-Apr-18 13:59N 01°08' E 103°43'612.7
2018-Apr-18 13:31N 01°11' E 103°48'713.9
2018-Apr-18 13:00N 01°13' E 103°55'  
2018-Apr-15 21:26N 01°13' E 103°56'4 8.6
2018-Apr-15 20:59N 01°12' E 103°52'511.0
2018-Apr-15 20:30N 01°09' E 103°48'4 8.4
2018-Apr-15 20:00N 01°06' E 103°44'4 8.1
2018-Apr-15 19:30N 01°04' E 103°41'4 6.8
2018-Apr-15 18:56N 01°03' E 103°37'611.5
2018-Apr-15 18:27N 01°07' E 103°33'410.1
2018-Apr-15 18:01N 01°10' E 103°36'5 9.2
2018-Apr-15 17:30N 01°11' E 103°40'2 2.9
2018-Apr-15 16:58N 01°11' E 103°42'0 0.0
2018-Apr-15 16:25N 01°11' E 103°42'0 0.2
2018-Apr-15 15:58N 01°11' E 103°42'0 0.0
2018-Apr-15 15:28N 01°11' E 103°42'0 0.1
2018-Apr-15 14:58N 01°11' E 103°42'0 0.0
2018-Apr-15 14:28N 01°11' E 103°42'0 0.0
2018-Apr-15 13:58N 01°11' E 103°42'0 0.1
2018-Apr-15 13:19N 01°11' E 103°42'0 0.0
2018-Apr-15 12:58N 01°11' E 103°42'0 0.1
2018-Apr-15 12:28N 01°11' E 103°42'0 0.0
2018-Apr-15 11:55N 01°11' E 103°42'0 0.0
2018-Apr-15 11:28N 01°11' E 103°42'0 0.0
2018-Apr-15 10:58N 01°11' E 103°42'0 0.0
2018-Apr-15 10:28N 01°11' E 103°42'0 0.1
2018-Apr-15 09:52N 01°11' E 103°42'0 0.2
2018-Apr-15 09:28N 01°11' E 103°42'0 0.0
2018-Apr-15 08:58N 01°11' E 103°42'0 0.1
2018-Apr-15 08:28N 01°11' E 103°42'0 0.0
2018-Apr-15 07:58N 01°11' E 103°42'0 0.0
2018-Apr-15 07:28N 01°11' E 103°42'0 0.1
2018-Apr-15 06:49N 01°11' E 103°42'0 0.0
2018-Apr-15 06:25N 01°11' E 103°42'0 0.0
2018-Apr-15 05:55N 01°11' E 103°42'0 0.0
2018-Apr-15 05:28N 01°11' E 103°42'1 1.3
2018-Apr-15 05:00N 01°11' E 103°42'2 4.4
2018-Apr-15 04:30N 01°09' E 103°44'3 6.8
2018-Apr-15 04:01N 01°10' E 103°47'4 7.6
2018-Apr-15 03:30N 01°12' E 103°51'4 7.7
2018-Apr-15 03:00N 01°13' E 103°54'4 8.2
2018-Apr-15 02:30N 01°15' E 103°58'  
2018-Apr-09 20:52N 22°00' E 121°11'512.6
2018-Apr-09 20:30N 22°04' E 121°14'612.4
2018-Apr-09 20:00N 22°09' E 121°18'613.0
2018-Apr-09 19:30N 22°14' E 121°22'1112.9
2018-Apr-09 18:39N 22°23' E 121°30'212.9
2018-Apr-09 18:30N 22°24' E 121°31'10312.6
2018-Apr-09 10:18N 23°54' E 122°28'512.7
2018-Apr-09 09:54N 23°58' E 122°29'512.8
2018-Apr-09 09:31N 24°03' E 122°30'713.0
2018-Apr-09 09:00N 24°10' E 122°32'713.6
2018-Apr-09 08:30N 24°16' E 122°34'714.0
2018-Apr-09 08:00N 24°23' E 122°36'713.3
2018-Apr-09 07:30N 24°29' E 122°38'713.3
2018-Apr-09 07:00N 24°36' E 122°40'713.2
2018-Apr-09 06:30N 24°42' E 122°41'613.0
2018-Apr-09 06:00N 24°48' E 122°44'612.3
2018-Apr-09 05:30N 24°54' E 122°45'611.6
2018-Apr-09 05:00N 25°00' E 122°47'612.2
2018-Apr-09 04:30N 25°06' E 122°48'612.3
2018-Apr-09 04:00N 25°12' E 122°50'  

Dump ship's entire track history